sensor_id;sensor_type;location;lat;lon;timestamp;pressure;altitude;pressure_sealevel;temperature;humidity
53011;BME280;42803;55.762;38.084;2023-10-13T00:01:09;98144.16;;;7.16;100.00
53011;BME280;42803;55.762;38.084;2023-10-13T00:03:40;98159.72;;;7.16;100.00
53011;BME280;42803;55.762;38.084;2023-10-13T00:06:10;98166.25;;;7.22;100.00
53011;BME280;42803;55.762;38.084;2023-10-13T00:08:39;98159.34;;;7.23;100.00
53011;BME280;42803;55.762;38.084;2023-10-13T00:11:12;98157.50;;;7.08;100.00
53011;BME280;42803;55.762;38.084;2023-10-13T00:13:42;98148.56;;;6.92;100.00
53011;BME280;42803;55.762;38.084;2023-10-13T00:16:18;98152.88;;;6.91;100.00
53011;BME280;42803;55.762;38.084;2023-10-13T00:18:50;98155.66;;;6.94;100.00
53011;BME280;42803;55.762;38.084;2023-10-13T00:21:22;98163.25;;;6.91;100.00
53011;BME280;42803;55.762;38.084;2023-10-13T00:24:00;98165.03;;;6.92;100.00
53011;BME280;42803;55.762;38.084;2023-10-13T00:26:34;98168.44;;;6.91;100.00
53011;BME280;42803;55.762;38.084;2023-10-13T00:29:06;98178.09;;;6.94;100.00
53011;BME280;42803;55.762;38.084;2023-10-13T00:31:44;98174.63;;;6.93;100.00
53011;BME280;42803;55.762;38.084;2023-10-13T00:34:16;98184.63;;;7.00;100.00
53011;BME280;42803;55.762;38.084;2023-10-13T00:36:48;98183.44;;;7.08;100.00
53011;BME280;42803;55.762;38.084;2023-10-13T00:39:38;98175.72;;;6.97;100.00
53011;BME280;42803;55.762;38.084;2023-10-13T00:42:13;98175.63;;;6.95;100.00
53011;BME280;42803;55.762;38.084;2023-10-13T00:44:49;98183.50;;;6.97;100.00
53011;BME280;42803;55.762;38.084;2023-10-13T00:47:18;98176.47;;;7.07;100.00
53011;BME280;42803;55.762;38.084;2023-10-13T00:50:05;98173.88;;;7.07;100.00
53011;BME280;42803;55.762;38.084;2023-10-13T00:52:35;98178.47;;;7.12;100.00
53011;BME280;42803;55.762;38.084;2023-10-13T00:55:05;98169.31;;;7.17;100.00
53011;BME280;42803;55.762;38.084;2023-10-13T00:57:36;98177.53;;;7.23;100.00
53011;BME280;42803;55.762;38.084;2023-10-13T01:00:07;98183.34;;;7.32;100.00
53011;BME280;42803;55.762;38.084;2023-10-13T01:02:40;98180.66;;;7.30;100.00
53011;BME280;42803;55.762;38.084;2023-10-13T01:05:09;98183.53;;;7.22;100.00
53011;BME280;42803;55.762;38.084;2023-10-13T01:07:39;98182.03;;;7.25;100.00
53011;BME280;42803;55.762;38.084;2023-10-13T01:10:10;98188.66;;;7.33;100.00
53011;BME280;42803;55.762;38.084;2023-10-13T01:12:42;98194.38;;;7.41;100.00
53011;BME280;42803;55.762;38.084;2023-10-13T01:15:13;98191.78;;;7.54;100.00
53011;BME280;42803;55.762;38.084;2023-10-13T01:17:45;98186.59;;;7.54;100.00
53011;BME280;42803;55.762;38.084;2023-10-13T01:20:14;98192.00;;;7.57;100.00
53011;BME280;42803;55.762;38.084;2023-10-13T01:22:48;98189.03;;;7.65;100.00
53011;BME280;42803;55.762;38.084;2023-10-13T01:25:25;98180.13;;;7.74;100.00
53011;BME280;42803;55.762;38.084;2023-10-13T01:27:56;98191.22;;;7.72;100.00
53011;BME280;42803;55.762;38.084;2023-10-13T01:30:25;98196.22;;;7.69;100.00
53011;BME280;42803;55.762;38.084;2023-10-13T01:32:54;98189.69;;;7.62;100.00
53011;BME280;42803;55.762;38.084;2023-10-13T01:35:22;98194.13;;;7.63;100.00
53011;BME280;42803;55.762;38.084;2023-10-13T01:37:54;98198.00;;;7.70;100.00
53011;BME280;42803;55.762;38.084;2023-10-13T01:40:22;98206.59;;;7.69;100.00
53011;BME280;42803;55.762;38.084;2023-10-13T01:42:58;98194.94;;;7.75;100.00
53011;BME280;42803;55.762;38.084;2023-10-13T01:45:26;98201.03;;;7.76;100.00
53011;BME280;42803;55.762;38.084;2023-10-13T01:47:57;98195.84;;;7.76;100.00
53011;BME280;42803;55.762;38.084;2023-10-13T01:50:25;98203.03;;;7.80;100.00
53011;BME280;42803;55.762;38.084;2023-10-13T01:52:58;98213.41;;;7.80;100.00
53011;BME280;42803;55.762;38.084;2023-10-13T01:55:40;98223.72;;;7.78;100.00
53011;BME280;42803;55.762;38.084;2023-10-13T01:58:14;98211.03;;;7.83;100.00
53011;BME280;42803;55.762;38.084;2023-10-13T02:00:45;98206.22;;;7.89;100.00
53011;BME280;42803;55.762;38.084;2023-10-13T02:03:15;98208.22;;;7.93;100.00
53011;BME280;42803;55.762;38.084;2023-10-13T02:05:46;98203.03;;;7.93;100.00
53011;BME280;42803;55.762;38.084;2023-10-13T02:08:15;98206.03;;;7.86;100.00
53011;BME280;42803;55.762;38.084;2023-10-13T02:10:50;98210.53;;;7.89;100.00
53011;BME280;42803;55.762;38.084;2023-10-13T02:13:22;98204.72;;;7.93;100.00
53011;BME280;42803;55.762;38.084;2023-10-13T02:15:56;98211.53;;;7.91;100.00
53011;BME280;42803;55.762;38.084;2023-10-13T02:18:26;98202.84;;;7.90;100.00
53011;BME280;42803;55.762;38.084;2023-10-13T02:20:56;98213.34;;;7.92;100.00
53011;BME280;42803;55.762;38.084;2023-10-13T02:23:25;98223.44;;;8.00;100.00
53011;BME280;42803;55.762;38.084;2023-10-13T02:25:59;98213.03;;;8.00;100.00
53011;BME280;42803;55.762;38.084;2023-10-13T02:28:31;98211.16;;;7.98;100.00
53011;BME280;42803;55.762;38.084;2023-10-13T02:31:02;98221.03;;;8.03;100.00
53011;BME280;42803;55.762;38.084;2023-10-13T02:33:31;98226.16;;;8.02;100.00
53011;BME280;42803;55.762;38.084;2023-10-13T02:36:02;98221.94;;;8.04;100.00
53011;BME280;42803;55.762;38.084;2023-10-13T02:38:33;98213.03;;;8.00;100.00
53011;BME280;42803;55.762;38.084;2023-10-13T02:41:10;98231.00;;;7.97;100.00
53011;BME280;42803;55.762;38.084;2023-10-13T02:43:40;98211.16;;;7.98;100.00
53011;BME280;42803;55.762;38.084;2023-10-13T02:46:11;98231.00;;;7.97;100.00
53011;BME280;42803;55.762;38.084;2023-10-13T02:48:39;98233.53;;;7.96;100.00
53011;BME280;42803;55.762;38.084;2023-10-13T02:51:09;98245.41;;;7.92;100.00
53011;BME280;42803;55.762;38.084;2023-10-13T02:53:44;98246.22;;;7.91;100.00
53011;BME280;42803;55.762;38.084;2023-10-13T02:56:15;98247.78;;;7.89;100.00
53011;BME280;42803;55.762;38.084;2023-10-13T02:58:51;98243.31;;;7.87;100.00
53011;BME280;42803;55.762;38.084;2023-10-13T03:01:24;98249.63;;;7.90;100.00
53011;BME280;42803;55.762;38.084;2023-10-13T03:03:57;98246.50;;;7.82;100.00
53011;BME280;42803;55.762;38.084;2023-10-13T03:06:27;98250.53;;;7.66;100.00
53011;BME280;42803;55.762;38.084;2023-10-13T03:09:02;98250.06;;;7.46;100.00
53011;BME280;42803;55.762;38.084;2023-10-13T03:11:43;98259.03;;;7.38;100.00
53011;BME280;42803;55.762;38.084;2023-10-13T03:14:20;98258.03;;;7.36;100.00
53011;BME280;42803;55.762;38.084;2023-10-13T03:16:55;98271.81;;;7.35;100.00
53011;BME280;42803;55.762;38.084;2023-10-13T03:19:31;98263.13;;;7.35;100.00
53011;BME280;42803;55.762;38.084;2023-10-13T03:22:03;98265.22;;;7.40;100.00
53011;BME280;42803;55.762;38.084;2023-10-13T03:24:38;98271.81;;;7.35;100.00
53011;BME280;42803;55.762;38.084;2023-10-13T03:27:14;98265.63;;;7.33;100.00
53011;BME280;42803;55.762;38.084;2023-10-13T03:29:46;98271.81;;;7.35;100.00
53011;BME280;42803;55.762;38.084;2023-10-13T03:32:16;98266.59;;;7.35;100.00
53011;BME280;42803;55.762;38.084;2023-10-13T03:34:46;98268.84;;;7.42;100.00
53011;BME280;42803;55.762;38.084;2023-10-13T03:37:21;98275.91;;;7.56;100.00
53011;BME280;42803;55.762;38.084;2023-10-13T03:40:07;98280.97;;;7.55;100.00
53011;BME280;42803;55.762;38.084;2023-10-13T03:42:58;98280.78;;;7.52;100.00
53011;BME280;42803;55.762;38.084;2023-10-13T03:45:34;98292.81;;;7.51;100.00
53011;BME280;42803;55.762;38.084;2023-10-13T03:48:08;98294.16;;;7.58;100.00
53011;BME280;42803;55.762;38.084;2023-10-13T03:50:58;98301.59;;;7.65;100.00
53011;BME280;42803;55.762;38.084;2023-10-13T03:53:36;98301.28;;;7.61;100.00
53011;BME280;42803;55.762;38.084;2023-10-13T03:56:22;98304.59;;;7.46;100.00
53011;BME280;42803;55.762;38.084;2023-10-13T03:59:00;98307.69;;;7.41;100.00
53011;BME280;42803;55.762;38.084;2023-10-13T04:01:35;98311.41;;;7.44;100.00
53011;BME280;42803;55.762;38.084;2023-10-13T04:04:16;98324.19;;;7.54;100.00
53011;BME280;42803;55.762;38.084;2023-10-13T04:07:01;98328.41;;;7.52;100.00
53011;BME280;42803;55.762;38.084;2023-10-13T04:10:07;98335.34;;;7.65;100.00
53011;BME280;42803;55.762;38.084;2023-10-13T04:13:07;98336.41;;;7.80;100.00
53011;BME280;42803;55.762;38.084;2023-10-13T04:15:53;98336.19;;;7.77;100.00
53011;BME280;42803;55.762;38.084;2023-10-13T04:18:44;98352.66;;;7.78;100.00
53011;BME280;42803;55.762;38.084;2023-10-13T04:21:36;98343.31;;;7.93;100.00
53011;BME280;42803;55.762;38.084;2023-10-13T04:24:11;98372.66;;;8.04;100.00
53011;BME280;42803;55.762;38.084;2023-10-13T04:26:51;98369.25;;;8.05;100.00
53011;BME280;42803;55.762;38.084;2023-10-13T04:29:38;98378.75;;;8.04;100.00
53011;BME280;42803;55.762;38.084;2023-10-13T04:32:19;98385.06;;;8.08;100.00
53011;BME280;42803;55.762;38.084;2023-10-13T04:34:59;98383.34;;;8.09;100.00
53011;BME280;42803;55.762;38.084;2023-10-13T04:37:36;98383.69;;;8.13;100.00
53011;BME280;42803;55.762;38.084;2023-10-13T04:40:18;98387.50;;;8.18;100.00
53011;BME280;42803;55.762;38.084;2023-10-13T04:42:53;98400.81;;;8.23;100.00
53011;BME280;42803;55.762;38.084;2023-10-13T04:45:24;98399.09;;;8.23;100.00
53011;BME280;42803;55.762;38.084;2023-10-13T04:48:21;98393.44;;;8.29;100.00
53011;BME280;42803;55.762;38.084;2023-10-13T04:51:10;98404.81;;;8.31;100.00
53011;BME280;42803;55.762;38.084;2023-10-13T04:54:17;98398.03;;;8.33;100.00
53011;BME280;42803;55.762;38.084;2023-10-13T04:56:54;98403.03;;;8.30;100.00
53011;BME280;42803;55.762;38.084;2023-10-13T04:59:49;98407.63;;;8.34;100.00
53011;BME280;42803;55.762;38.084;2023-10-13T05:02:37;98417.91;;;8.44;100.00
53011;BME280;42803;55.762;38.084;2023-10-13T05:05:44;98420.31;;;8.54;100.00
53011;BME280;42803;55.762;38.084;2023-10-13T05:08:22;98410.03;;;8.56;100.00
53011;BME280;42803;55.762;38.084;2023-10-13T05:11:11;98409.63;;;8.63;100.00
53011;BME280;42803;55.762;38.084;2023-10-13T05:14:00;98444.03;;;8.59;100.00
53011;BME280;42803;55.762;38.084;2023-10-13T05:16:47;98450.53;;;8.66;100.00
53011;BME280;42803;55.762;38.084;2023-10-13T05:19:34;98425.97;;;8.74;100.00
53011;BME280;42803;55.762;38.084;2023-10-13T05:22:21;98447.69;;;8.88;100.00
53011;BME280;42803;55.762;38.084;2023-10-13T05:25:08;98445.59;;;8.95;100.00
53011;BME280;42803;55.762;38.084;2023-10-13T05:27:55;98459.09;;;9.03;100.00
53011;BME280;42803;55.762;38.084;2023-10-13T05:30:53;98462.22;;;8.97;100.00
53011;BME280;42803;55.762;38.084;2023-10-13T05:33:40;98471.31;;;9.04;100.00
53011;BME280;42803;55.762;38.084;2023-10-13T05:36:26;98477.13;;;9.00;100.00
53011;BME280;42803;55.762;38.084;2023-10-13T05:39:13;98476.81;;;8.95;100.00
53011;BME280;42803;55.762;38.084;2023-10-13T05:42:01;98485.47;;;9.21;100.00
53011;BME280;42803;55.762;38.084;2023-10-13T05:44:48;98474.84;;;9.44;100.00
53011;BME280;42803;55.762;38.084;2023-10-13T05:47:45;98495.84;;;9.61;100.00
53011;BME280;42803;55.762;38.084;2023-10-13T05:50:22;98483.03;;;9.64;100.00
53011;BME280;42803;55.762;38.084;2023-10-13T05:53:13;98484.16;;;9.41;100.00
53011;BME280;42803;55.762;38.084;2023-10-13T05:56:01;98498.88;;;9.27;99.85
53011;BME280;42803;55.762;38.084;2023-10-13T05:58:50;98487.25;;;9.22;100.00
53011;BME280;42803;55.762;38.084;2023-10-13T06:01:51;98522.13;;;9.37;100.00
53011;BME280;42803;55.762;38.084;2023-10-13T06:04:39;98514.91;;;9.60;100.00
53011;BME280;42803;55.762;38.084;2023-10-13T06:07:25;98527.31;;;9.64;100.00
53011;BME280;42803;55.762;38.084;2023-10-13T06:10:12;98519.41;;;9.49;100.00
53011;BME280;42803;55.762;38.084;2023-10-13T06:12:58;98525.13;;;9.57;100.00
53011;BME280;42803;55.762;38.084;2023-10-13T06:15:46;98532.75;;;9.67;100.00
53011;BME280;42803;55.762;38.084;2023-10-13T06:18:33;98522.38;;;9.95;98.49
53011;BME280;42803;55.762;38.084;2023-10-13T06:21:19;98525.00;;;9.82;100.00
53011;BME280;42803;55.762;38.084;2023-10-13T06:24:07;98543.56;;;9.60;98.40
53011;BME280;42803;55.762;38.084;2023-10-13T06:26:54;98544.97;;;9.68;98.71
53011;BME280;42803;55.762;38.084;2023-10-13T06:29:41;98548.78;;;9.73;99.39
53011;BME280;42803;55.762;38.084;2023-10-13T06:32:15;98546.19;;;9.46;96.51
53011;BME280;42803;55.762;38.084;2023-10-13T06:34:46;98553.47;;;9.52;100.00
53011;BME280;42803;55.762;38.084;2023-10-13T06:37:15;98553.19;;;9.74;99.79
53011;BME280;42803;55.762;38.084;2023-10-13T06:39:58;98565.00;;;9.69;96.55
53011;BME280;42803;55.762;38.084;2023-10-13T06:42:34;98559.88;;;9.57;94.63
53011;BME280;42803;55.762;38.084;2023-10-13T06:45:05;98566.41;;;9.50;97.18
53011;BME280;42803;55.762;38.084;2023-10-13T06:47:38;98579.53;;;9.52;96.02
53011;BME280;42803;55.762;38.084;2023-10-13T06:50:11;98573.59;;;9.41;96.02
53011;BME280;42803;55.762;38.084;2023-10-13T06:52:44;98586.09;;;9.20;92.77
53011;BME280;42803;55.762;38.084;2023-10-13T06:55:15;98599.50;;;9.26;93.28
53011;BME280;42803;55.762;38.084;2023-10-13T06:57:51;98579.13;;;9.59;92.41
53011;BME280;42803;55.762;38.084;2023-10-13T07:00:21;98589.84;;;10.04;90.69
53011;BME280;42803;55.762;38.084;2023-10-13T07:03:02;98602.28;;;10.08;88.64
53011;BME280;42803;55.762;38.084;2023-10-13T07:05:36;98594.88;;;9.74;89.19
53011;BME280;42803;55.762;38.084;2023-10-13T07:08:08;98602.66;;;9.61;89.90
53011;BME280;42803;55.762;38.084;2023-10-13T07:10:47;98612.22;;;9.87;87.99
53011;BME280;42803;55.762;38.084;2023-10-13T07:13:19;98605.28;;;10.00;87.77
53011;BME280;42803;55.762;38.084;2023-10-13T07:15:50;98621.91;;;10.02;85.69
53011;BME280;42803;55.762;38.084;2023-10-13T07:18:27;98643.78;;;10.18;86.77
53011;BME280;42803;55.762;38.084;2023-10-13T07:21:03;98624.53;;;10.42;86.18
53011;BME280;42803;55.762;38.084;2023-10-13T07:23:37;98630.50;;;10.55;84.40
53011;BME280;42803;55.762;38.084;2023-10-13T07:26:07;98625.81;;;10.77;83.68
53011;BME280;42803;55.762;38.084;2023-10-13T07:28:36;98645.09;;;11.07;82.22
53011;BME280;42803;55.762;38.084;2023-10-13T07:31:12;98639.97;;;10.81;86.05
53011;BME280;42803;55.762;38.084;2023-10-13T07:33:44;98637.94;;;10.62;81.72
53011;BME280;42803;55.762;38.084;2023-10-13T07:36:14;98635.03;;;10.44;80.37
53011;BME280;42803;55.762;38.084;2023-10-13T07:38:56;98657.66;;;10.71;78.65
53011;BME280;42803;55.762;38.084;2023-10-13T07:41:51;98663.22;;;10.91;80.00
53011;BME280;42803;55.762;38.084;2023-10-13T07:44:22;98655.22;;;10.88;82.58
53011;BME280;42803;55.762;38.084;2023-10-13T07:46:56;98670.25;;;10.37;79.52
53011;BME280;42803;55.762;38.084;2023-10-13T07:49:35;98661.78;;;10.27;81.16
53011;BME280;42803;55.762;38.084;2023-10-13T07:52:07;98680.28;;;10.44;81.20
53011;BME280;42803;55.762;38.084;2023-10-13T07:55:04;98695.34;;;10.48;81.08
53011;BME280;42803;55.762;38.084;2023-10-13T07:57:48;98700.56;;;10.48;81.23
53011;BME280;42803;55.762;38.084;2023-10-13T08:00:25;98683.22;;;10.36;80.80
53011;BME280;42803;55.762;38.084;2023-10-13T08:02:59;98699.38;;;10.30;79.63
53011;BME280;42803;55.762;38.084;2023-10-13T08:05:52;98656.44;;;10.12;80.19
53011;BME280;42803;55.762;38.084;2023-10-13T08:08:35;98704.41;;;10.27;80.53
53011;BME280;42803;55.762;38.084;2023-10-13T08:11:09;98696.75;;;10.17;78.39
53011;BME280;42803;55.762;38.084;2023-10-13T08:13:54;98699.25;;;10.55;79.04
53011;BME280;42803;55.762;38.084;2023-10-13T08:16:37;98707.28;;;10.58;79.10
53011;BME280;42803;55.762;38.084;2023-10-13T08:19:23;98700.25;;;10.98;79.02
53011;BME280;42803;55.762;38.084;2023-10-13T08:21:59;98718.09;;;11.06;77.50
53011;BME280;42803;55.762;38.084;2023-10-13T08:24:50;98716.09;;;11.02;77.74
53011;BME280;42803;55.762;38.084;2023-10-13T08:27:45;98736.34;;;11.19;78.90
53011;BME280;42803;55.762;38.084;2023-10-13T08:30:35;98742.19;;;11.43;78.51
53011;BME280;42803;55.762;38.084;2023-10-13T08:33:25;98746.59;;;11.16;77.49
53011;BME280;42803;55.762;38.084;2023-10-13T08:35:55;98747.03;;;11.09;76.46
53011;BME280;42803;55.762;38.084;2023-10-13T08:38:50;98769.34;;;11.04;75.75
53011;BME280;42803;55.762;38.084;2023-10-13T08:41:23;98763.19;;;11.16;77.11
53011;BME280;42803;55.762;38.084;2023-10-13T08:44:02;98757.69;;;10.98;76.18
53011;BME280;42803;55.762;38.084;2023-10-13T08:46:38;98775.09;;;10.85;75.35
53011;BME280;42803;55.762;38.084;2023-10-13T08:49:33;98751.50;;;10.83;74.85
53011;BME280;42803;55.762;38.084;2023-10-13T08:52:11;98773.19;;;10.82;73.32
53011;BME280;42803;55.762;38.084;2023-10-13T08:55:01;98767.97;;;10.95;72.55
53011;BME280;42803;55.762;38.084;2023-10-13T08:58:02;98771.06;;;11.03;74.45
53011;BME280;42803;55.762;38.084;2023-10-13T09:00:43;98778.38;;;11.37;73.01
53011;BME280;42803;55.762;38.084;2023-10-13T09:03:40;98779.25;;;11.22;72.47
53011;BME280;42803;55.762;38.084;2023-10-13T09:06:13;98796.50;;;11.62;70.68
53011;BME280;42803;55.762;38.084;2023-10-13T09:08:48;98782.97;;;11.97;68.62
53011;BME280;42803;55.762;38.084;2023-10-13T09:11:35;98781.63;;;12.18;71.18
53011;BME280;42803;55.762;38.084;2023-10-13T09:14:19;98803.44;;;12.04;70.43
53011;BME280;42803;55.762;38.084;2023-10-13T09:17:03;98789.56;;;11.77;69.27
53011;BME280;42803;55.762;38.084;2023-10-13T09:19:48;98807.59;;;11.44;71.97
53011;BME280;42803;55.762;38.084;2023-10-13T09:22:25;98798.78;;;11.29;70.80
53011;BME280;42803;55.762;38.084;2023-10-13T09:24:58;98809.91;;;11.53;73.59
53011;BME280;42803;55.762;38.084;2023-10-13T09:27:33;98811.31;;;11.76;72.24
53011;BME280;42803;55.762;38.084;2023-10-13T09:30:07;98815.06;;;11.66;69.63
53011;BME280;42803;55.762;38.084;2023-10-13T09:32:46;98829.63;;;11.76;68.74
53011;BME280;42803;55.762;38.084;2023-10-13T09:35:19;98826.47;;;11.54;69.35
53011;BME280;42803;55.762;38.084;2023-10-13T09:37:51;98833.09;;;11.62;69.27
53011;BME280;42803;55.762;38.084;2023-10-13T09:40:24;98833.97;;;12.18;66.86
53011;BME280;42803;55.762;38.084;2023-10-13T09:42:58;98847.72;;;12.01;67.52
53011;BME280;42803;55.762;38.084;2023-10-13T09:45:33;98845.84;;;11.99;67.02
53011;BME280;42803;55.762;38.084;2023-10-13T09:48:09;98852.81;;;12.28;66.85
53011;BME280;42803;55.762;38.084;2023-10-13T09:50:47;98860.88;;;12.75;65.89
53011;BME280;42803;55.762;38.084;2023-10-13T09:53:17;98862.47;;;12.58;66.25
53011;BME280;42803;55.762;38.084;2023-10-13T09:55:49;98860.88;;;12.46;65.19
53011;BME280;42803;55.762;38.084;2023-10-13T09:58:22;98867.72;;;12.29;65.56
53011;BME280;42803;55.762;38.084;2023-10-13T10:00:59;98860.44;;;11.95;64.99
53011;BME280;42803;55.762;38.084;2023-10-13T10:03:50;98879.28;;;11.76;65.61
53011;BME280;42803;55.762;38.084;2023-10-13T10:06:36;98862.84;;;11.64;66.57
53011;BME280;42803;55.762;38.084;2023-10-13T10:09:13;98877.56;;;11.49;66.52
53011;BME280;42803;55.762;38.084;2023-10-13T10:15:07;98901.84;;;11.61;66.45
53011;BME280;42803;55.762;38.084;2023-10-13T10:17:44;98890.19;;;11.56;65.84
53011;BME280;42803;55.762;38.084;2023-10-13T10:20:15;98897.41;;;11.60;67.45
53011;BME280;42803;55.762;38.084;2023-10-13T10:23:10;98891.47;;;12.04;66.57
53011;BME280;42803;55.762;38.084;2023-10-13T10:25:49;98898.19;;;12.28;65.37
53011;BME280;42803;55.762;38.084;2023-10-13T10:28:20;98896.13;;;12.23;64.98
53011;BME280;42803;55.762;38.084;2023-10-13T10:31:04;98906.13;;;12.15;63.82
53011;BME280;42803;55.762;38.084;2023-10-13T10:33:41;98911.34;;;12.15;64.38
53011;BME280;42803;55.762;38.084;2023-10-13T10:36:34;98908.50;;;12.25;63.08
53011;BME280;42803;55.762;38.084;2023-10-13T10:39:07;98910.97;;;12.09;65.22
53011;BME280;42803;55.762;38.084;2023-10-13T10:41:40;98905.81;;;11.82;65.49
53011;BME280;42803;55.762;38.084;2023-10-13T10:44:19;98922.78;;;11.61;65.63
53011;BME280;42803;55.762;38.084;2023-10-13T10:47:16;98921.06;;;11.61;66.29
53011;BME280;42803;55.762;38.084;2023-10-13T10:49:59;98889.69;;;11.61;65.21
53011;BME280;42803;55.762;38.084;2023-10-13T10:52:37;98921.81;;;11.74;65.65
53011;BME280;42803;55.762;38.084;2023-10-13T10:55:19;98926.56;;;11.79;64.78
53011;BME280;42803;55.762;38.084;2023-10-13T10:57:59;98931.72;;;11.64;65.63
53011;BME280;42803;55.762;38.084;2023-10-13T11:00:35;98940.31;;;11.77;65.11
53011;BME280;42803;55.762;38.084;2023-10-13T11:03:33;98917.22;;;11.69;64.37
53011;BME280;42803;55.762;38.084;2023-10-13T11:06:06;98947.91;;;11.59;64.25
53011;BME280;42803;55.762;38.084;2023-10-13T11:08:46;98941.06;;;11.61;63.42
53011;BME280;42803;55.762;38.084;2023-10-13T11:11:29;98960.16;;;11.60;63.18
53011;BME280;42803;55.762;38.084;2023-10-13T11:14:07;98963.19;;;11.53;62.23
53011;BME280;42803;55.762;38.084;2023-10-13T11:16:56;98956.16;;;11.38;62.69
53011;BME280;42803;55.762;38.084;2023-10-13T11:19:41;98987.13;;;11.19;63.16
53011;BME280;42803;55.762;38.084;2023-10-13T11:22:13;98982.09;;;10.95;63.15
53011;BME280;42803;55.762;38.084;2023-10-13T11:24:59;98975.03;;;10.94;63.99
53011;BME280;42803;55.762;38.084;2023-10-13T11:27:39;98975.34;;;11.12;64.23
53011;BME280;42803;55.762;38.084;2023-10-13T11:30:27;98990.50;;;11.18;63.71
53011;BME280;42803;55.762;38.084;2023-10-13T11:33:14;98976.88;;;11.22;63.40
53011;BME280;42803;55.762;38.084;2023-10-13T11:35:49;98992.72;;;11.25;62.90
53011;BME280;42803;55.762;38.084;2023-10-13T11:38:29;98993.84;;;11.29;62.61
53011;BME280;42803;55.762;38.084;2023-10-13T11:41:25;98994.25;;;11.48;63.10
53011;BME280;42803;55.762;38.084;2023-10-13T11:44:08;98994.94;;;11.59;63.53
53011;BME280;42803;55.762;38.084;2023-10-13T11:46:58;98983.25;;;11.67;62.85
53011;BME280;42803;55.762;38.084;2023-10-13T11:50:03;99004.28;;;11.55;61.78
53011;BME280;42803;55.762;38.084;2023-10-13T11:52:36;98995.97;;;11.61;62.31
53011;BME280;42803;55.762;38.084;2023-10-13T11:55:14;99009.81;;;11.73;61.85
53011;BME280;42803;55.762;38.084;2023-10-13T11:57:59;99017.88;;;11.76;61.97
53011;BME280;42803;55.762;38.084;2023-10-13T12:00:37;99008.91;;;11.73;61.04
53011;BME280;42803;55.762;38.084;2023-10-13T12:03:39;98993.44;;;11.62;60.32
53011;BME280;42803;55.762;38.084;2023-10-13T12:06:30;99020.19;;;11.58;61.31
53011;BME280;42803;55.762;38.084;2023-10-13T12:09:18;99022.97;;;11.75;61.09
53011;BME280;42803;55.762;38.084;2023-10-13T12:12:23;99020.19;;;11.71;60.06
53011;BME280;42803;55.762;38.084;2023-10-13T12:14:55;99032.31;;;11.71;59.47
53011;BME280;42803;55.762;38.084;2023-10-13T12:17:39;99037.16;;;11.78;59.89
53011;BME280;42803;55.762;38.084;2023-10-13T12:20:14;99029.63;;;11.69;59.95
53011;BME280;42803;55.762;38.084;2023-10-13T12:23:04;99020.38;;;11.61;60.12
53011;BME280;42803;55.762;38.084;2023-10-13T12:25:48;99020.28;;;11.60;59.97
53011;BME280;42803;55.762;38.084;2023-10-13T12:28:26;99024.72;;;11.61;60.14
53011;BME280;42803;55.762;38.084;2023-10-13T12:31:03;99028.09;;;11.60;59.65
53011;BME280;42803;55.762;38.084;2023-10-13T12:33:38;99022.09;;;11.61;59.12
53011;BME280;42803;55.762;38.084;2023-10-13T12:36:11;99031.13;;;11.66;59.48
53011;BME280;42803;55.762;38.084;2023-10-13T12:39:18;99032.66;;;11.62;59.39
53011;BME280;42803;55.762;38.084;2023-10-13T12:42:07;99038.19;;;11.54;59.59
53011;BME280;42803;55.762;38.084;2023-10-13T12:44:55;99032.53;;;11.47;59.98
53011;BME280;42803;55.762;38.084;2023-10-13T12:47:47;99039.78;;;11.52;60.56
53011;BME280;42803;55.762;38.084;2023-10-13T12:50:54;99034.03;;;11.44;60.27
53011;BME280;42803;55.762;38.084;2023-10-13T12:53:39;99025.69;;;11.36;60.93
53011;BME280;42803;55.762;38.084;2023-10-13T12:56:14;99027.31;;;11.34;61.19
53011;BME280;42803;55.762;38.084;2023-10-13T12:58:47;99034.34;;;11.35;60.82
53011;BME280;42803;55.762;38.084;2023-10-13T13:01:26;99033.53;;;11.36;60.82
53011;BME280;42803;55.762;38.084;2023-10-13T13:04:04;99040.38;;;11.34;60.93
53011;BME280;42803;55.762;38.084;2023-10-13T13:06:46;99031.16;;;11.26;61.63
53011;BME280;42803;55.762;38.084;2023-10-13T13:09:28;99034.91;;;11.18;61.89
53011;BME280;42803;55.762;38.084;2023-10-13T13:12:06;99045.97;;;11.14;61.94
53011;BME280;42803;55.762;38.084;2023-10-13T13:14:42;99048.09;;;11.19;61.73
53011;BME280;42803;55.762;38.084;2023-10-13T13:17:15;99054.41;;;11.10;61.52
53011;BME280;42803;55.762;38.084;2023-10-13T13:19:52;99067.97;;;11.04;63.00
53011;BME280;42803;55.762;38.084;2023-10-13T13:22:22;99055.19;;;10.95;62.14
53011;BME280;42803;55.762;38.084;2023-10-13T13:24:55;99062.81;;;10.92;62.55
53011;BME280;42803;55.762;38.084;2023-10-13T13:27:30;99063.41;;;10.88;63.13
53011;BME280;42803;55.762;38.084;2023-10-13T13:30:11;99059.56;;;10.83;63.32
53011;BME280;42803;55.762;38.084;2023-10-13T13:32:59;99067.50;;;10.85;62.90
53011;BME280;42803;55.762;38.084;2023-10-13T13:35:52;99070.78;;;10.69;63.91
53011;BME280;42803;55.762;38.084;2023-10-13T13:38:24;99083.00;;;10.70;64.29
53011;BME280;42803;55.762;38.084;2023-10-13T13:40:59;99079.19;;;10.65;64.50
53011;BME280;42803;55.762;38.084;2023-10-13T13:43:41;99083.38;;;10.63;65.24
53011;BME280;42803;55.762;38.084;2023-10-13T13:46:26;99094.91;;;10.53;65.10
53011;BME280;42803;55.762;38.084;2023-10-13T13:49:05;99083.91;;;10.45;65.26
53011;BME280;42803;55.762;38.084;2023-10-13T13:51:48;99080.38;;;10.45;64.96
53011;BME280;42803;55.762;38.084;2023-10-13T13:54:30;99091.66;;;10.32;65.53
53011;BME280;42803;55.762;38.084;2023-10-13T13:57:02;99095.84;;;10.30;65.02